createdAt,value
2019-04-27T00:00:50.362Z,3.27
2019-04-27T00:03:20.877Z,3.70
2019-04-27T00:05:51.513Z,3.40
2019-04-27T00:14:05.500Z,3.05
2019-04-27T00:16:40.470Z,3.45
2019-04-27T00:19:19.512Z,3.10
2019-04-27T00:21:56.023Z,2.95
2019-04-27T00:24:25.420Z,3.00
2019-04-27T00:26:54.537Z,2.92
2019-04-27T00:29:23.670Z,2.90
2019-04-27T00:31:55.784Z,2.98
2019-04-27T00:34:24.880Z,2.70
2019-04-27T00:36:55.344Z,2.52
2019-04-27T00:39:43.201Z,2.95
2019-04-27T00:42:13.385Z,2.58
2019-04-27T00:44:42.966Z,2.80
2019-04-27T00:47:13.756Z,3.17
2019-04-27T00:49:44.317Z,2.72
2019-04-27T00:52:13.929Z,3.20
2019-04-27T00:54:44.175Z,3.20
2019-04-27T00:57:25.360Z,2.90
2019-04-27T01:02:38.083Z,3.58
2019-04-27T01:05:08.923Z,2.58
2019-04-27T01:07:37.913Z,2.37
2019-04-27T01:10:08.481Z,2.70
2019-04-27T01:12:37.643Z,3.20
2019-04-27T01:15:07.335Z,2.65
2019-04-27T01:17:39.003Z,2.72
2019-04-27T01:20:08.660Z,2.72
2019-04-27T01:22:39.137Z,2.80
2019-04-27T01:25:08.783Z,2.22
2019-04-27T01:27:39.589Z,3.47
2019-04-27T01:30:11.147Z,3.22
2019-04-27T01:32:40.140Z,3.20
2019-04-27T01:35:09.411Z,2.20
2019-04-27T01:37:38.697Z,2.67
2019-04-27T01:40:09.806Z,2.70
2019-04-27T01:42:39.507Z,3.08
2019-04-27T01:45:08.893Z,3.20
2019-04-27T01:47:39.155Z,2.92
2019-04-27T01:50:09.100Z,3.17
2019-04-27T01:52:38.554Z,2.85
2019-04-27T01:55:08.629Z,2.60
2019-04-27T01:57:38.639Z,2.70
2019-04-27T02:00:27.511Z,2.42
2019-04-27T02:02:59.431Z,2.90
2019-04-27T02:05:36.970Z,2.95
2019-04-27T02:08:06.489Z,2.20
2019-04-27T02:10:35.575Z,2.98
2019-04-27T02:13:04.457Z,3.60
2019-04-27T02:15:33.660Z,3.10
2019-04-27T02:18:02.546Z,3.00
2019-04-27T02:20:31.661Z,3.10
2019-04-27T02:23:00.851Z,3.08
2019-04-27T02:25:29.951Z,3.45
2019-04-27T02:28:00.471Z,2.83
2019-04-27T02:30:31.112Z,3.10
2019-04-27T02:33:12.805Z,2.87
2019-04-27T02:35:42.091Z,2.90
2019-04-27T02:38:11.402Z,3.05
2019-04-27T02:40:55.049Z,3.10
2019-04-27T02:43:26.376Z,2.75
2019-04-27T02:45:55.363Z,2.42
2019-04-27T02:48:24.576Z,3.10
2019-04-27T02:50:55.206Z,2.87
2019-04-27T02:53:25.818Z,2.87
2019-04-27T02:55:54.827Z,2.80
2019-04-27T02:58:23.828Z,2.70
2019-04-27T03:00:52.815Z,3.00
2019-04-27T03:03:22.016Z,2.10
2019-04-27T03:05:51.110Z,2.22
2019-04-27T03:08:20.235Z,3.05
2019-04-27T03:10:50.361Z,2.80
2019-04-27T03:13:30.487Z,3.33
2019-04-27T03:16:01.331Z,3.55
2019-04-27T03:18:50.787Z,2.80
2019-04-27T03:21:24.093Z,3.20
2019-04-27T03:23:53.041Z,3.02
2019-04-27T03:26:23.814Z,3.62
2019-04-27T03:28:54.132Z,3.05
2019-04-27T03:31:23.232Z,2.95
2019-04-27T03:33:58.696Z,2.70
2019-04-27T03:36:22.981Z,2.77
2019-04-27T03:38:51.847Z,2.87
2019-04-27T03:41:20.949Z,3.05
2019-04-27T03:43:50.485Z,3.30
2019-04-27T03:46:20.401Z,3.08
2019-04-27T03:48:49.880Z,2.72
2019-04-27T03:51:24.392Z,3.47
2019-04-27T03:54:00.198Z,3.40
2019-04-27T03:56:30.573Z,2.98
2019-04-27T03:59:01.337Z,3.30
2019-04-27T04:01:30.488Z,2.90
2019-04-27T04:03:59.985Z,2.60
2019-04-27T04:06:29.661Z,3.15
2019-04-27T04:09:00.177Z,2.72
2019-04-27T04:11:31.287Z,3.08
2019-04-27T04:14:01.773Z,3.42
2019-04-27T04:16:49.728Z,2.80
2019-04-27T04:19:19.741Z,2.85
2019-04-27T04:21:50.358Z,2.62
2019-04-27T04:24:20.086Z,2.90
2019-04-27T04:26:50.279Z,2.40
2019-04-27T04:29:20.196Z,2.20
2019-04-27T04:31:50.266Z,2.65
2019-04-27T04:34:20.106Z,2.52
2019-04-27T04:36:50.443Z,2.77
2019-04-27T04:39:19.893Z,3.30
2019-04-27T04:42:02.410Z,3.05
2019-04-27T04:44:50.197Z,2.40
2019-04-27T04:47:36.635Z,3.30
2019-04-27T04:50:12.101Z,2.87
2019-04-27T04:52:41.878Z,3.30
2019-04-27T04:55:10.196Z,3.00
2019-04-27T04:57:40.060Z,3.12
2019-04-27T05:00:09.961Z,3.02
2019-04-27T05:02:39.780Z,3.00
2019-04-27T05:05:09.484Z,3.10
2019-04-27T05:07:38.826Z,3.20
2019-04-27T05:10:09.061Z,4.85
2019-04-27T05:12:59.012Z,4.53
2019-04-27T05:15:29.353Z,3.95
2019-04-27T05:17:59.146Z,3.80
2019-04-27T05:20:39.667Z,5.17
2019-04-27T05:23:09.615Z,4.55
2019-04-27T05:25:39.087Z,4.33
2019-04-27T05:28:09.672Z,4.20
2019-04-27T05:30:39.144Z,4.28
2019-04-27T05:33:08.907Z,2.92
2019-04-27T05:35:40.609Z,2.85
2019-04-27T05:38:13.065Z,3.25
2019-04-27T05:40:39.880Z,3.02
2019-04-27T05:43:10.280Z,2.90
2019-04-27T05:46:12.384Z,2.52
2019-04-27T05:48:41.764Z,2.75
2019-04-27T05:51:10.756Z,3.12
2019-04-27T05:53:40.073Z,2.52
2019-04-27T05:56:09.503Z,3.05
2019-04-27T05:58:39.256Z,3.72
2019-04-27T06:01:10.873Z,2.45
2019-04-27T06:03:39.693Z,2.55
2019-04-27T06:06:09.628Z,2.20
2019-04-27T06:08:39.420Z,2.70
2019-04-27T06:11:09.667Z,2.37
2019-04-27T06:13:39.225Z,3.00
2019-04-27T06:16:09.492Z,2.55
2019-04-27T06:18:39.183Z,2.70
2019-04-27T06:21:09.757Z,2.70
2019-04-27T06:23:39.204Z,2.40
2019-04-27T06:26:11.346Z,2.90
2019-04-27T06:28:39.743Z,3.55
2019-04-27T06:31:09.091Z,3.20
2019-04-27T06:33:39.128Z,3.42
2019-04-27T06:36:10.079Z,3.33
2019-04-27T06:38:39.368Z,3.65
2019-04-27T06:41:10.078Z,3.02
2019-04-27T06:43:40.618Z,2.40
2019-04-27T06:46:09.812Z,2.50
2019-04-27T06:48:39.454Z,2.85
2019-04-27T06:51:09.677Z,3.12
2019-04-27T06:53:39.427Z,3.40
2019-04-27T06:56:09.027Z,3.40
2019-04-27T06:58:38.920Z,2.90
2019-04-27T07:01:09.461Z,3.37
2019-04-27T07:03:39.629Z,3.50
2019-04-27T07:06:08.995Z,3.33
2019-04-27T07:08:39.941Z,3.40
2019-04-27T07:11:11.308Z,3.40
2019-04-27T07:13:39.305Z,4.00
2019-04-27T07:16:09.653Z,4.00
2019-04-27T07:18:39.718Z,3.40
2019-04-27T07:21:17.060Z,3.52
2019-04-27T07:23:40.899Z,3.75
2019-04-27T07:26:10.192Z,3.58
2019-04-27T07:28:40.911Z,2.67
2019-04-27T07:31:09.911Z,3.17
2019-04-27T07:33:39.559Z,3.55
2019-04-27T07:36:09.045Z,3.95
2019-04-27T07:38:39.874Z,4.50
2019-04-27T07:41:09.671Z,3.77
2019-04-27T07:43:40.328Z,3.00
2019-04-27T07:46:13.636Z,2.95
2019-04-27T07:48:44.532Z,2.75
2019-04-27T07:51:13.613Z,2.35
2019-04-27T07:53:43.335Z,3.00
2019-04-27T07:56:12.732Z,2.37
2019-04-27T07:58:44.204Z,2.00
2019-04-27T08:01:13.309Z,2.00
2019-04-27T08:03:42.573Z,2.20
2019-04-27T08:06:11.593Z,2.12
2019-04-27T08:08:40.691Z,2.00
2019-04-27T08:11:11.352Z,1.90
2019-04-27T08:13:40.511Z,1.90
2019-04-27T08:16:09.611Z,1.82
2019-04-27T08:18:39.627Z,1.90
2019-04-27T08:21:09.039Z,1.87
2019-04-27T08:23:39.432Z,1.90
2019-04-27T08:26:10.591Z,1.90
2019-04-27T08:28:43.892Z,2.20
2019-04-27T08:31:33.111Z,2.08
2019-04-27T08:34:02.165Z,2.05
2019-04-27T08:36:31.151Z,2.30
2019-04-27T08:39:00.232Z,2.20
2019-04-27T08:41:29.550Z,2.42
2019-04-27T08:43:58.926Z,2.40
2019-04-27T08:46:28.608Z,2.20
2019-04-27T08:48:58.666Z,2.45
2019-04-27T08:51:29.131Z,2.40
2019-04-27T08:53:59.100Z,2.08
2019-04-27T08:56:28.400Z,2.20
2019-04-27T08:58:57.513Z,2.92
2019-04-27T09:01:26.719Z,2.70
2019-04-27T09:03:55.803Z,3.35
2019-04-27T09:06:24.791Z,2.85
2019-04-27T09:08:55.431Z,3.10
2019-04-27T09:11:29.049Z,2.83
2019-04-27T09:13:59.968Z,3.80
2019-04-27T09:16:57.923Z,3.10
2019-04-27T09:19:21.912Z,3.22
2019-04-27T09:22:13.591Z,3.05
2019-04-27T09:24:35.463Z,2.95
2019-04-27T09:27:05.173Z,2.98
2019-04-27T09:29:34.249Z,2.83
2019-04-27T09:32:03.472Z,2.65
2019-04-27T09:34:32.553Z,2.98
2019-04-27T09:37:01.568Z,2.87
2019-04-27T09:39:30.865Z,3.02
2019-04-27T09:41:59.951Z,3.52
2019-04-27T09:44:28.951Z,2.70
2019-04-27T09:46:58.251Z,3.35
2019-04-27T09:49:27.215Z,2.75
2019-04-27T09:51:56.237Z,3.52
2019-04-27T09:54:27.104Z,3.17
2019-04-27T09:56:56.178Z,2.65
2019-04-27T09:59:26.541Z,2.90
2019-04-27T10:01:57.579Z,2.62
2019-04-27T10:04:26.832Z,3.05
2019-04-27T10:06:56.959Z,2.92
2019-04-27T10:09:26.425Z,3.15
2019-04-27T10:11:56.982Z,2.72
2019-04-27T10:14:26.502Z,3.17
2019-04-27T10:16:55.891Z,3.75
2019-04-27T10:19:30.658Z,3.00
2019-04-27T10:21:55.913Z,3.50
2019-04-27T10:24:25.759Z,3.22
2019-04-27T10:26:54.939Z,3.37
2019-04-27T10:29:24.032Z,3.35
2019-04-27T10:31:57.013Z,3.47
2019-04-27T10:34:26.195Z,3.60
2019-04-27T10:36:55.937Z,2.90
2019-04-27T10:39:25.709Z,3.50
2019-04-27T10:41:56.371Z,3.70
2019-04-27T10:44:26.717Z,2.70
2019-04-27T10:46:56.185Z,2.42
2019-04-27T10:49:25.293Z,3.00
2019-04-27T10:51:55.762Z,3.30
2019-04-27T10:54:25.348Z,2.85
2019-04-27T10:56:55.827Z,2.70
2019-04-27T10:59:24.943Z,2.70
2019-04-27T11:01:55.935Z,3.37
2019-04-27T11:04:26.511Z,2.95
2019-04-27T11:06:57.345Z,3.02
2019-04-27T11:09:26.751Z,2.47
2019-04-27T11:11:56.602Z,2.72
2019-04-27T11:14:26.262Z,4.22
2019-04-27T11:16:56.097Z,2.50
2019-04-27T11:19:26.764Z,2.47
2019-04-27T11:21:56.193Z,3.65
2019-04-27T11:24:25.532Z,3.90
2019-04-27T11:26:54.531Z,2.33
2019-04-27T11:29:25.925Z,3.33
2019-04-27T11:31:55.618Z,3.27
2019-04-27T11:34:26.412Z,3.05
2019-04-27T11:36:59.912Z,2.60
2019-04-27T11:39:28.932Z,2.80
2019-04-27T11:41:57.932Z,2.25
2019-04-27T11:44:27.212Z,1.98
2019-04-27T11:46:56.392Z,2.20
2019-04-27T11:49:25.820Z,2.17
2019-04-27T11:52:15.737Z,2.37
2019-04-27T11:54:45.754Z,2.40
2019-04-27T11:57:15.090Z,2.45
2019-04-27T11:59:44.288Z,2.20
2019-04-27T12:02:13.401Z,2.42
2019-04-27T12:04:42.477Z,2.70
2019-04-27T12:07:11.693Z,2.90
2019-04-27T12:09:40.796Z,2.02
2019-04-27T12:12:15.222Z,2.60
2019-04-27T12:14:40.512Z,2.08
2019-04-27T12:17:09.631Z,2.00
2019-04-27T12:19:39.692Z,2.65
2019-04-27T12:22:08.926Z,2.83
2019-04-27T12:24:38.054Z,2.92
2019-04-27T12:27:08.839Z,2.50
2019-04-27T12:29:42.572Z,3.20
2019-04-27T12:32:11.737Z,2.77
2019-04-27T12:34:40.646Z,2.92
2019-04-27T12:37:10.069Z,2.85
2019-04-27T12:39:39.152Z,2.50
2019-04-27T12:42:08.004Z,1.90
2019-04-27T12:44:42.247Z,2.08
2019-04-27T12:47:07.751Z,2.40
2019-04-27T12:49:36.752Z,2.50
2019-04-27T12:52:06.701Z,2.17
2019-04-27T12:54:40.489Z,2.40
2019-04-27T12:57:27.791Z,2.47
2019-04-27T13:00:16.396Z,2.50
2019-04-27T13:02:45.332Z,3.08
2019-04-27T13:05:15.766Z,2.80
2019-04-27T13:07:44.846Z,2.70
2019-04-27T13:10:15.810Z,2.75
2019-04-27T13:12:46.091Z,1.77
2019-04-27T13:15:15.553Z,1.90
2019-04-27T13:17:44.840Z,1.80
2019-04-27T13:20:16.376Z,1.80
2019-04-27T13:22:45.889Z,2.02
2019-04-27T13:25:15.391Z,2.08
2019-04-27T13:27:44.397Z,2.00
2019-04-27T13:30:16.319Z,2.30
2019-04-27T13:32:45.958Z,2.08
2019-04-27T13:35:15.808Z,1.92
2019-04-27T13:37:46.639Z,2.30
2019-04-27T13:40:17.294Z,2.40
2019-04-27T13:42:48.189Z,2.10
2019-04-27T13:45:18.812Z,2.75
2019-04-27T13:47:52.214Z,2.25
2019-04-27T13:50:25.789Z,2.50
2019-04-27T13:52:54.680Z,2.52
2019-04-27T13:55:23.892Z,2.50
2019-04-27T13:57:53.092Z,2.52
2019-04-27T14:00:22.692Z,2.15
2019-04-27T14:02:53.509Z,2.33
2019-04-27T14:05:24.143Z,2.50
2019-04-27T14:07:53.172Z,2.47
2019-04-27T14:10:22.471Z,2.52
2019-04-27T14:12:51.543Z,2.27
2019-04-27T14:15:20.536Z,2.10
2019-04-27T14:17:50.038Z,2.00
2019-04-27T14:20:19.151Z,2.17
2019-04-27T14:22:48.251Z,2.47
2019-04-27T14:25:18.131Z,2.12
2019-04-27T14:27:48.889Z,2.22
2019-04-27T14:30:17.991Z,2.52
2019-04-27T14:32:47.284Z,2.30
2019-04-27T14:35:18.050Z,2.45
2019-04-27T14:37:48.410Z,2.33
2019-04-27T14:40:18.542Z,2.22
2019-04-27T14:42:48.381Z,2.87
2019-04-27T14:45:18.923Z,2.30
2019-04-27T14:47:48.327Z,2.02
2019-04-27T14:50:18.806Z,2.60
2019-04-27T14:52:48.635Z,2.35
2019-04-27T14:55:18.272Z,2.20
2019-04-27T14:57:49.480Z,2.27
2019-04-27T15:00:20.132Z,2.30
2019-04-27T15:02:49.663Z,2.30
2019-04-27T15:05:18.734Z,2.10
2019-04-27T15:07:47.943Z,2.17
2019-04-27T15:10:17.577Z,2.00
2019-04-27T15:12:46.632Z,2.30
2019-04-27T15:15:16.125Z,2.30
2019-04-27T15:17:45.325Z,2.80
2019-04-27T15:20:32.782Z,2.98
2019-04-27T15:23:03.491Z,2.47
2019-04-27T15:25:42.040Z,2.37
2019-04-27T15:28:12.210Z,2.70
2019-04-27T15:30:46.354Z,2.67
2019-04-27T15:33:17.625Z,2.42
2019-04-27T15:35:48.753Z,2.90
2019-04-27T15:38:22.425Z,2.20
2019-04-27T15:40:55.822Z,1.80
2019-04-27T15:43:27.292Z,2.05
2019-04-27T15:45:58.612Z,2.37
2019-04-27T15:48:30.591Z,2.17
2019-04-27T15:51:02.855Z,1.80
2019-04-27T15:53:29.212Z,2.87
2019-04-27T15:56:00.872Z,2.08
2019-04-27T15:58:28.935Z,2.52
2019-04-27T16:01:02.374Z,2.22
2019-04-27T16:03:31.435Z,2.50
2019-04-27T16:06:03.281Z,2.47
2019-04-27T16:08:30.231Z,2.42
2019-04-27T16:10:59.357Z,2.05
2019-04-27T16:13:32.893Z,1.85
2019-04-27T16:15:59.225Z,2.08
2019-04-27T16:18:30.996Z,1.82
2019-04-27T16:21:02.935Z,1.82
2019-04-27T16:23:33.534Z,1.80
2019-04-27T16:26:04.984Z,1.70
2019-04-27T16:28:31.471Z,1.65
2019-04-27T16:31:00.571Z,1.87
2019-04-27T16:33:29.671Z,1.90
2019-04-27T16:36:06.320Z,1.80
2019-04-27T16:38:33.602Z,2.02
2019-04-27T16:41:03.332Z,2.15
2019-04-27T16:43:32.930Z,2.27
2019-04-27T16:46:04.409Z,2.30
2019-04-27T16:48:34.696Z,2.10
2019-04-27T16:51:03.798Z,2.27
2019-04-27T16:53:39.449Z,2.15
2019-04-27T16:56:14.417Z,1.57
2019-04-27T16:58:39.506Z,2.27
2019-04-27T17:01:13.041Z,2.10
2019-04-27T17:03:42.172Z,1.70
2019-04-27T17:06:11.290Z,1.65
2019-04-27T17:08:40.353Z,1.70
2019-04-27T17:11:13.612Z,1.70
2019-04-27T17:13:44.228Z,1.67
2019-04-27T17:16:31.244Z,2.00
2019-04-27T17:19:04.907Z,2.05
2019-04-27T17:21:38.724Z,2.77
2019-04-27T17:24:05.701Z,2.65
2019-04-27T17:26:39.342Z,2.30
2019-04-27T17:29:16.275Z,2.20
2019-04-27T17:31:44.912Z,2.25
2019-04-27T17:34:14.117Z,2.27
2019-04-27T17:36:43.212Z,1.95
2019-04-27T17:39:12.293Z,2.10
2019-04-27T17:41:42.206Z,2.50
2019-04-27T17:44:12.836Z,2.17
2019-04-27T17:46:47.640Z,2.40
2019-04-27T17:49:13.712Z,1.92
2019-04-27T17:51:44.371Z,2.52
2019-04-27T17:54:13.524Z,2.50
2019-04-27T17:56:48.277Z,2.35
2019-04-27T17:59:16.899Z,2.05
2019-04-27T18:01:44.387Z,1.40
2019-04-27T18:04:14.333Z,1.75
2019-04-27T18:06:43.303Z,2.05
2019-04-27T18:09:14.252Z,2.00
2019-04-27T18:11:43.532Z,1.47
2019-04-27T18:14:14.667Z,1.75
2019-04-27T18:16:43.284Z,1.90
2019-04-27T18:19:19.730Z,1.80
2019-04-27T18:22:00.985Z,2.17
2019-04-27T18:24:31.552Z,1.82
2019-04-27T18:29:59.266Z,1.92
2019-04-27T18:32:28.755Z,2.00
2019-04-27T18:34:58.494Z,1.90
2019-04-27T18:37:29.194Z,1.57
2019-04-27T18:39:59.696Z,1.72
2019-04-27T18:42:31.231Z,1.90
2019-04-27T18:45:06.020Z,1.55
2019-04-27T18:47:31.198Z,1.82
2019-04-27T18:50:11.041Z,1.42
2019-04-27T18:52:40.361Z,1.80
2019-04-27T18:55:09.292Z,1.52
2019-04-27T18:57:39.138Z,1.90
2019-04-27T19:00:12.253Z,2.00
2019-04-27T19:02:41.333Z,1.70
2019-04-27T19:05:10.981Z,1.80
2019-04-27T19:07:40.033Z,1.75
2019-04-27T19:10:09.581Z,2.17
2019-04-27T19:12:39.419Z,2.80
2019-04-27T19:15:08.783Z,1.30
2019-04-27T19:17:38.675Z,1.90
2019-04-27T19:20:10.494Z,1.65
2019-04-27T19:22:39.544Z,2.42
2019-04-27T19:25:35.948Z,1.70
2019-04-27T19:28:09.473Z,2.12
2019-04-27T19:30:46.653Z,2.17
2019-04-27T19:33:15.628Z,1.57
2019-04-27T19:35:44.723Z,1.87
2019-04-27T19:38:13.933Z,1.72
2019-04-27T19:40:42.990Z,2.52
2019-04-27T19:43:12.260Z,1.70
2019-04-27T19:45:41.550Z,2.05
2019-04-27T19:48:10.708Z,2.10
2019-04-27T19:50:39.813Z,1.57
2019-04-27T19:53:09.723Z,1.90
2019-04-27T19:55:40.459Z,2.12
2019-04-27T19:58:09.573Z,1.80
2019-04-27T20:00:40.285Z,1.62
2019-04-27T20:03:11.110Z,2.30
2019-04-27T20:05:40.340Z,1.82
2019-04-27T20:08:11.290Z,1.98
2019-04-27T20:10:43.107Z,1.90
2019-04-27T20:13:11.094Z,1.45
2019-04-27T20:15:40.689Z,1.52
2019-04-27T20:18:11.150Z,1.65
2019-04-27T20:20:40.627Z,1.65
2019-04-27T20:23:09.795Z,2.00
2019-04-27T20:25:38.932Z,1.52
2019-04-27T20:28:08.033Z,1.60
2019-04-27T20:30:37.131Z,1.70
2019-04-27T20:33:06.240Z,1.65
2019-04-27T20:35:35.687Z,2.02
2019-04-27T20:38:05.040Z,1.80
2019-04-27T20:40:33.991Z,1.80
2019-04-27T20:43:03.313Z,1.30
2019-04-27T20:45:32.808Z,1.60
2019-04-27T20:48:04.802Z,1.90
2019-04-27T20:50:34.092Z,1.55
2019-04-27T20:53:04.602Z,1.30
2019-04-27T20:55:33.710Z,1.52
2019-04-27T20:58:03.010Z,1.05
2019-04-27T21:00:32.176Z,1.52
2019-04-27T21:03:07.538Z,1.40
2019-04-27T21:05:38.174Z,1.40
2019-04-27T21:08:14.374Z,1.80
2019-04-27T21:10:43.433Z,1.50
2019-04-27T21:13:12.533Z,1.50
2019-04-27T21:15:41.998Z,1.42
2019-04-27T21:18:12.773Z,1.50
2019-04-27T21:20:41.873Z,1.70
2019-04-27T21:23:12.049Z,1.98
2019-04-27T21:25:42.053Z,2.00
2019-04-27T21:28:16.655Z,1.95
2019-04-27T21:30:42.558Z,1.82
2019-04-27T21:33:11.666Z,1.95
2019-04-27T21:35:40.733Z,1.50
2019-04-27T21:38:11.559Z,1.85
2019-04-27T21:40:40.939Z,1.90
2019-04-27T21:43:11.338Z,1.40
2019-04-27T21:45:41.995Z,1.75
2019-04-27T21:48:11.226Z,1.80
2019-04-27T21:50:41.273Z,1.45
2019-04-27T21:53:12.582Z,2.05
2019-04-27T21:55:42.225Z,1.40
2019-04-27T21:58:11.597Z,1.65
2019-04-27T22:00:43.137Z,1.60
2019-04-27T22:03:14.010Z,2.12
2019-04-27T22:05:42.988Z,1.47
2019-04-27T22:08:12.087Z,1.90
2019-04-27T22:10:42.966Z,2.58
2019-04-27T22:13:12.006Z,2.17
2019-04-27T22:15:41.670Z,1.85
2019-04-27T22:18:11.123Z,1.42
2019-04-27T22:20:42.402Z,1.90
2019-04-27T22:23:29.088Z,1.70
2019-04-27T22:25:58.069Z,1.95
2019-04-27T22:28:27.026Z,2.50
2019-04-27T22:30:56.272Z,2.17
2019-04-27T22:33:25.362Z,1.90
2019-04-27T22:35:54.342Z,2.00
2019-04-27T22:38:23.652Z,2.35
2019-04-27T22:40:57.340Z,2.45
2019-04-27T22:43:44.162Z,2.17
2019-04-27T22:46:27.181Z,2.10
2019-04-27T22:48:56.200Z,2.00
2019-04-27T22:51:25.471Z,2.20
2019-04-27T22:53:54.350Z,1.80
2019-04-27T22:56:23.667Z,1.87
2019-04-27T22:59:00.647Z,2.25
2019-04-27T23:01:26.677Z,2.00
2019-04-27T23:04:03.146Z,2.05
2019-04-27T23:06:32.749Z,1.90
2019-04-27T23:09:02.064Z,1.90
2019-04-27T23:11:31.493Z,1.77
2019-04-27T23:14:01.014Z,1.72
2019-04-27T23:16:31.736Z,1.80
2019-04-27T23:19:01.803Z,1.65
2019-04-27T23:21:31.337Z,2.15
2019-04-27T23:24:01.866Z,1.60
2019-04-27T23:26:31.356Z,2.30
2019-04-27T23:29:11.036Z,1.95
2019-04-27T23:31:35.582Z,2.20
2019-04-27T23:34:04.571Z,1.70
2019-04-27T23:36:33.550Z,2.25
2019-04-27T23:39:02.667Z,2.40
2019-04-27T23:41:31.619Z,1.98
2019-04-27T23:44:00.643Z,2.10
2019-04-27T23:46:29.942Z,1.92
2019-04-27T23:48:59.032Z,2.33
2019-04-27T23:51:32.422Z,1.80
2019-04-27T23:54:01.728Z,2.30
2019-04-27T23:56:31.825Z,2.15
2019-04-27T23:59:01.367Z,1.52
